Time;durP1;ratioP1;P1;durP2;ratioP2;P2;SDS_P1;SDS_P2;PMS_P1;PMS_P2;Temp;Humidity;BMP_temperature;BMP_pressure;BME280_temperature;BME280_humidity;BME280_pressure;Samples;Min_cycle;Max_cycle;Signal;HPM_P1;HPM_P2
2021/07/24 00:00:29;;;;;;;7.00;4.13;;;;;;;16.75;78.68;101523.69;5029985;28;20266;-48
2021/07/24 00:02:57;;;;;;;7.35;3.70;;;;;;;16.74;78.64;101524.84;5027892;28;20056;-48
2021/07/24 00:05:25;;;;;;;7.90;4.00;;;;;;;16.74;78.84;101521.19;5033565;28;20056;-49
2021/07/24 00:07:53;;;;;;;7.97;3.92;;;;;;;16.75;78.99;101522.88;5034230;28;20124;-50
2021/07/24 00:10:21;;;;;;;7.18;4.53;;;;;;;16.73;79.27;101520.38;5034162;28;20045;-47
2021/07/24 00:12:50;;;;;;;6.40;4.05;;;;;;;16.71;79.43;101519.88;5033404;28;20067;-58
2021/07/24 00:15:20;;;;;;;6.00;3.20;;;;;;;16.70;79.60;101525.81;5032615;28;20132;-48
2021/07/24 00:17:47;;;;;;;7.22;4.30;;;;;;;16.68;79.72;101523.31;5033904;28;20123;-49
2021/07/24 00:20:15;;;;;;;5.82;3.17;;;;;;;16.68;79.94;101523.31;5033139;28;20068;-48
2021/07/24 00:22:45;;;;;;;7.85;3.97;;;;;;;16.66;80.08;101517.19;5034026;28;20475;-52
2021/07/24 00:25:14;;;;;;;5.50;3.40;;;;;;;16.62;80.20;101518.94;5034060;28;20048;-50
2021/07/24 00:27:41;;;;;;;7.18;4.35;;;;;;;16.61;80.33;101514.47;5033237;28;20053;-55
2021/07/24 00:30:09;;;;;;;7.38;4.35;;;;;;;16.61;80.63;101510.81;5033691;28;20045;-55
2021/07/24 00:32:43;;;;;;;7.22;3.92;;;;;;;16.59;80.80;101501.84;5021769;28;20053;-50
2021/07/24 00:35:11;;;;;;;6.55;3.85;;;;;;;16.59;81.01;101508.31;5033210;28;20124;-57
2021/07/24 00:37:39;;;;;;;7.53;4.65;;;;;;;16.58;81.13;101517.94;5033447;28;20466;-48
2021/07/24 00:40:13;;;;;;;8.40;4.30;;;;;;;16.57;81.35;101509.81;5033647;28;20045;-48
2021/07/24 00:42:44;;;;;;;4.93;3.50;;;;;;;16.54;81.43;101517.75;5033033;28;20061;-53
2021/07/24 00:45:15;;;;;;;6.82;3.75;;;;;;;16.54;81.58;101512.13;5033278;28;20048;-52
2021/07/24 00:47:49;;;;;;;7.35;4.35;;;;;;;16.54;81.57;101517.75;5032886;28;20079;-50
2021/07/24 00:50:27;;;;;;;8.93;5.18;;;;;;;16.51;81.81;101512.78;5030827;28;20049;-49
2021/07/24 00:53:00;;;;;;;8.20;5.25;;;;;;;16.49;81.86;101508.59;5030167;28;20060;-54
2021/07/24 00:55:29;;;;;;;9.10;5.38;;;;;;;16.47;82.04;101499.66;5030286;28;20034;-49
2021/07/24 00:57:56;;;;;;;6.18;4.55;;;;;;;16.45;82.19;101493.50;5033236;28;20053;-51
2021/07/24 01:00:25;;;;;;;7.45;4.80;;;;;;;16.44;82.38;101500.28;5033366;28;20509;-56
2021/07/24 01:02:54;;;;;;;7.93;5.47;;;;;;;16.40;82.51;101493.63;5030430;28;20050;-51
2021/07/24 01:05:22;;;;;;;8.32;5.30;;;;;;;16.37;82.90;101499.94;5033123;28;20048;-51
2021/07/24 01:07:51;;;;;;;6.95;4.95;;;;;;;16.38;83.10;101495.97;5032915;28;20092;-48
2021/07/24 01:10:18;;;;;;;8.32;4.78;;;;;;;16.38;83.24;101498.78;5032428;28;20081;-52
2021/07/24 01:12:52;;;;;;;9.20;5.43;;;;;;;16.36;83.47;101493.47;5033164;28;20053;-48
2021/07/24 01:15:20;;;;;;;8.90;5.43;;;;;;;16.36;83.57;101484.19;5032616;28;20068;-48
2021/07/24 01:17:48;;;;;;;7.93;5.18;;;;;;;16.37;83.49;101483.03;5032756;28;20208;-48
2021/07/24 01:20:19;;;;;;;7.45;5.15;;;;;;;16.36;83.98;101485.03;5032664;28;20050;-48
2021/07/24 01:22:49;;;;;;;6.95;4.85;;;;;;;16.36;84.03;101472.94;5031820;28;20156;-48
2021/07/24 01:25:18;;;;;;;7.78;5.40;;;;;;;16.34;84.20;101470.44;5032747;28;20054;-48
2021/07/24 01:27:46;;;;;;;10.00;6.47;;;;;;;16.33;84.34;101457.50;5032691;28;20045;-53
2021/07/24 01:30:15;;;;;;;7.78;5.05;;;;;;;16.31;84.58;101459.81;5032022;28;20124;-53
2021/07/24 01:32:44;;;;;;;7.80;5.45;;;;;;;16.30;84.75;101460.13;5031423;28;20049;-48
2021/07/24 01:35:13;;;;;;;10.10;5.95;;;;;;;16.27;84.90;101455.97;5032434;28;20077;-50
2021/07/24 01:37:41;;;;;;;7.53;4.97;;;;;;;16.23;85.30;101449.31;5032201;28;20103;-48
2021/07/24 01:40:12;;;;;;;8.10;5.20;;;;;;;16.23;85.36;101454.13;5032460;28;20051;-48
2021/07/24 01:42:41;;;;;;;7.72;5.25;;;;;;;16.20;85.64;101449.94;5032528;28;20128;-49
2021/07/24 01:45:10;;;;;;;10.55;5.32;;;;;;;16.20;85.78;101447.13;5031669;28;20445;-48
2021/07/24 01:47:38;;;;;;;11.38;6.50;;;;;;;16.20;85.96;101442.34;5031844;28;20411;-58
2021/07/24 01:53:04;;;;;;;7.40;5.25;;;;;;;16.15;86.48;101431.22;4998198;28;20049;-50
2021/07/24 01:55:39;;;;;;;8.32;5.20;;;;;;;16.18;86.60;101424.97;5032097;28;20107;-48
2021/07/24 01:58:13;;;;;;;10.40;6.35;;;;;;;16.16;86.75;101427.25;5031580;28;20128;-49
2021/07/24 02:00:49;;;;;;;8.88;5.93;;;;;;;16.16;86.92;101427.25;5028959;28;20160;-57
2021/07/24 02:03:33;;;;;;;10.48;6.85;;;;;;;16.16;87.24;101426.44;5028866;28;20046;-50
2021/07/24 02:06:27;;;;;;;9.77;5.07;;;;;;;16.14;87.53;101406.22;5028216;28;20130;-56
2021/07/24 02:09:13;;;;;;;8.32;4.78;;;;;;;16.14;87.56;101401.41;5030759;28;20445;-49
2021/07/24 02:11:46;;;;;;;10.38;6.00;;;;;;;16.15;87.62;101403.06;5030648;28;20056;-51
2021/07/24 02:14:18;;;;;;;10.73;6.72;;;;;;;16.15;87.75;101397.44;5030428;28;20056;-58
2021/07/24 02:16:52;;;;;;;12.38;6.97;;;;;;;16.14;88.05;101381.69;5030426;28;20454;-51
2021/07/24 02:19:28;;;;;;;9.20;6.38;;;;;;;16.15;88.41;101382.53;5029877;28;20045;-51
2021/07/24 02:21:55;;;;;;;10.77;6.40;;;;;;;16.14;88.48;101370.44;5031485;28;20128;-50
2021/07/24 02:24:23;;;;;;;11.80;7.30;;;;;;;16.14;88.74;101372.44;5030200;28;20539;-56
2021/07/24 02:26:53;;;;;;;10.15;7.22;;;;;;;16.13;88.96;101377.22;5029179;28;20049;-54
2021/07/24 02:29:36;;;;;;;11.02;6.95;;;;;;;16.12;89.19;101371.91;5030291;28;20127;-53
2021/07/24 02:32:06;;;;;;;13.40;7.40;;;;;;;16.14;89.37;101367.63;5031715;28;20115;-50
2021/07/24 02:34:34;;;;;;;11.38;6.72;;;;;;;16.14;89.84;101353.53;5031096;28;20045;-48
2021/07/24 02:37:02;;;;;;;14.13;8.05;;;;;;;16.16;90.07;101358.84;5031406;28;20053;-50
2021/07/24 02:39:30;;;;;;;12.88;7.65;;;;;;;16.15;90.10;101341.13;5026729;28;20076;-56
2021/07/24 02:42:00;;;;;;;11.82;7.35;;;;;;;16.18;90.05;101348.09;5030541;28;20507;-51
2021/07/24 02:44:31;;;;;;;11.18;7.65;;;;;;;16.19;90.36;101356.19;5020178;28;20506;-55
2021/07/24 02:46:59;;;;;;;11.38;6.85;;;;;;;16.19;90.51;101349.72;5031188;28;20131;-51
2021/07/24 02:49:28;;;;;;;13.32;7.80;;;;;;;16.22;90.50;101351.91;5031294;28;20095;-48
2021/07/24 02:51:58;;;;;;;14.20;9.80;;;;;;;16.24;90.96;101349.59;5031189;28;20439;-48
2021/07/24 02:54:28;;;;;;;10.70;7.45;;;;;;;16.25;90.98;101356.88;5029249;28;20046;-46
2021/07/24 02:56:57;;;;;;;12.65;8.88;;;;;;;16.27;91.06;101360.22;5031090;28;20037;-53
2021/07/24 02:59:26;;;;;;;17.15;9.63;;;;;;;16.28;91.43;101369.50;5031215;28;20034;-56
2021/07/24 03:01:54;;;;;;;15.45;8.32;;;;;;;16.29;91.47;101368.34;5028860;28;20479;-51
2021/07/24 03:04:22;;;;;;;13.80;8.85;;;;;;;16.29;91.48;101359.88;5031023;28;20065;-53
2021/07/24 03:06:50;;;;;;;13.73;8.07;;;;;;;16.28;91.41;101344.16;5030839;28;20111;-49
2021/07/24 03:09:18;;;;;;;13.35;8.52;;;;;;;16.29;91.42;101343.00;5030441;28;20107;-52
2021/07/24 03:11:46;;;;;;;13.40;9.05;;;;;;;16.28;91.42;101344.97;5030946;28;20053;-52
2021/07/24 03:14:14;;;;;;;15.43;9.35;;;;;;;16.27;91.65;101353.75;5030938;28;20053;-53
2021/07/24 03:16:43;;;;;;;12.95;8.60;;;;;;;16.25;92.12;101353.25;5030454;28;20081;-57
2021/07/24 03:19:11;;;;;;;16.67;9.65;;;;;;;16.23;91.91;101347.94;5030750;28;20136;-56
2021/07/24 03:21:39;;;;;;;12.40;8.70;;;;;;;16.23;91.95;101352.72;5030940;28;20572;-49
2021/07/24 03:24:07;;;;;;;14.00;9.45;;;;;;;16.23;92.01;101342.28;5030442;28;20080;-52
2021/07/24 03:26:34;;;;;;;15.15;9.23;;;;;;;16.21;91.85;101341.78;5030991;28;20156;-52
2021/07/24 03:29:06;;;;;;;14.20;8.68;;;;;;;16.17;91.84;101327.56;5030724;28;20052;-55
2021/07/24 03:31:34;;;;;;;13.35;9.02;;;;;;;16.15;91.98;101304.53;5030350;28;20084;-54
2021/07/24 03:34:03;;;;;;;17.38;9.07;;;;;;;16.15;91.77;101304.53;5030653;28;20072;-49
2021/07/24 03:36:31;;;;;;;14.95;9.25;;;;;;;16.13;91.91;101309.66;5030091;28;20473;-51
2021/07/24 03:38:59;;;;;;;12.75;8.02;;;;;;;16.13;91.80;101308.81;5032113;28;20406;-47
2021/07/24 03:41:27;;;;;;;15.13;8.75;;;;;;;16.12;91.90;101313.63;5034844;28;20441;-48
2021/07/24 03:43:54;;;;;;;10.68;7.85;;;;;;;16.10;91.95;101301.84;5033626;28;20069;-57
2021/07/24 03:46:24;;;;;;;11.77;8.55;;;;;;;16.09;92.00;101305.81;5033724;28;20049;-50
2021/07/24 03:48:54;;;;;;;14.27;9.00;;;;;;;16.08;92.05;101312.59;5034022;28;20116;-51
2021/07/24 03:51:23;;;;;;;12.93;7.80;;;;;;;16.06;92.00;101309.28;5033703;28;20123;-51
2021/07/24 03:53:51;;;;;;;15.48;9.65;;;;;;;16.04;91.88;101294.69;5034210;28;20041;-58
2021/07/24 03:56:20;;;;;;;15.00;9.88;;;;;;;16.04;91.91;101296.69;5034348;28;20171;-53
2021/07/24 03:58:51;;;;;;;15.02;9.43;;;;;;;16.04;92.05;101299.50;5033543;28;20064;-49
2021/07/24 04:01:20;;;;;;;16.67;10.10;;;;;;;16.02;92.11;101290.53;5034282;28;20049;-55
2021/07/24 04:03:48;;;;;;;13.55;8.43;;;;;;;16.03;92.07;101293.03;5034544;28;20049;-57
2021/07/24 04:06:22;;;;;;;12.77;8.43;;;;;;;16.03;91.97;101292.19;5033691;28;20077;-53
2021/07/24 04:08:52;;;;;;;13.90;8.60;;;;;;;16.02;92.22;101299.81;5034194;28;20046;-49
2021/07/24 04:11:21;;;;;;;13.77;8.90;;;;;;;16.04;92.14;101310.75;5033937;28;20053;-51
2021/07/24 04:13:49;;;;;;;16.45;10.50;;;;;;;16.05;92.22;101307.63;5033929;28;20046;-49
2021/07/24 04:16:18;;;;;;;14.55;9.93;;;;;;;16.07;92.51;101327.00;5034122;28;20084;-49
2021/07/24 04:18:46;;;;;;;16.35;9.82;;;;;;;16.08;92.17;101329.50;5033567;28;20103;-59
2021/07/24 04:21:14;;;;;;;16.38;11.05;;;;;;;16.08;92.36;101323.88;5034046;28;20088;-52
2021/07/24 04:23:41;;;;;;;14.30;9.45;;;;;;;16.07;92.51;101322.19;5034198;28;20119;-50
2021/07/24 04:26:11;;;;;;;16.50;10.75;;;;;;;16.08;92.45;101314.59;5033266;28;20049;-49
2021/07/24 04:28:39;;;;;;;16.85;10.48;;;;;;;16.06;92.63;101317.72;5033985;28;20439;-48
2021/07/24 04:31:12;;;;;;;18.05;10.65;;;;;;;16.08;92.50;101315.41;5033977;28;20399;-50
2021/07/24 04:33:40;;;;;;;13.65;9.73;;;;;;;16.08;92.49;101318.22;5033031;28;20073;-50
2021/07/24 04:36:08;;;;;;;16.48;10.30;;;;;;;16.12;92.56;101307.16;5033710;28;20041;-51
2021/07/24 04:38:36;;;;;;;17.75;10.98;;;;;;;16.11;92.51;101299.88;5033922;28;20244;-49
2021/07/24 04:41:04;;;;;;;19.02;12.75;;;;;;;16.13;92.52;101298.38;5032091;28;20076;-57
2021/07/24 04:43:34;;;;;;;14.52;10.23;;;;;;;16.13;92.52;101295.56;5033509;28;20049;-50
2021/07/24 04:46:06;;;;;;;16.80;11.77;;;;;;;16.16;92.50;101296.91;5033650;28;20072;-50
2021/07/24 04:48:35;;;;;;;17.52;10.93;;;;;;;16.19;92.33;101294.25;5021724;28;20426;-56
2021/07/24 04:51:04;;;;;;;16.85;10.70;;;;;;;16.22;92.28;101292.75;5033369;28;20111;-58
2021/07/24 04:53:34;;;;;;;16.52;11.52;;;;;;;16.25;92.24;101280.84;5033461;28;20557;-50
2021/07/24 04:56:03;;;;;;;18.77;12.55;;;;;;;16.29;92.20;101283.84;5029584;28;20037;-50
2021/07/24 04:58:31;;;;;;;16.27;10.88;;;;;;;16.31;91.96;101276.72;5033452;28;20056;-52
2021/07/24 05:01:01;;;;;;;19.83;11.68;;;;;;;16.33;92.07;101282.88;5031519;28;20080;-51
2021/07/24 05:03:32;;;;;;;12.88;9.05;;;;;;;16.38;91.87;101279.91;5032178;28;20041;-51
2021/07/24 05:06:01;;;;;;;13.63;10.07;;;;;;;16.44;91.78;101272.09;5033140;28;20049;-52
2021/07/24 05:08:29;;;;;;;15.30;10.60;;;;;;;16.48;91.62;101271.13;5032697;28;20046;-54
2021/07/24 05:10:58;;;;;;;15.10;10.25;;;;;;;16.53;91.54;101270.16;5032610;28;20033;-55
2021/07/24 05:13:25;;;;;;;15.20;9.48;;;;;;;16.58;91.25;101260.72;5032939;28;20045;-51
2021/07/24 05:15:53;;;;;;;13.20;8.38;;;;;;;16.64;90.95;101240.50;5032262;28;20052;-52
2021/07/24 05:18:22;;;;;;;13.80;9.30;;;;;;;16.70;90.67;101241.19;5032654;28;20107;-50
2021/07/24 05:20:50;;;;;;;14.80;9.07;;;;;;;16.75;90.35;101236.22;5032924;28;20136;-48
2021/07/24 05:23:18;;;;;;;12.85;8.45;;;;;;;16.81;89.72;101242.50;5031979;28;20080;-51
2021/07/24 05:25:45;;;;;;;16.45;10.00;;;;;;;16.87;89.34;101244.81;5031747;28;20077;-57
2021/07/24 05:28:13;;;;;;;12.27;8.27;;;;;;;16.94;88.89;101238.69;5032452;28;20124;-49
2021/07/24 05:30:41;;;;;;;11.10;7.72;;;;;;;17.01;88.29;101241.00;5032337;28;20100;-49
2021/07/24 05:33:09;;;;;;;11.48;7.38;;;;;;;17.06;87.70;101230.38;5032374;28;20045;-55
2021/07/24 05:35:38;;;;;;;12.13;7.15;;;;;;;17.13;86.99;101225.06;5032489;28;20049;-50
2021/07/24 05:38:05;;;;;;;10.98;6.70;;;;;;;17.22;86.91;101216.56;5031930;28;20057;-54
2021/07/24 05:40:33;;;;;;;10.55;6.93;;;;;;;17.28;86.49;101206.78;5032209;28;20048;-58
2021/07/24 05:43:01;;;;;;;12.95;7.18;;;;;;;17.35;86.13;101221.22;5027273;28;20168;-49
2021/07/24 05:45:30;;;;;;;12.73;7.25;;;;;;;17.40;85.61;101221.00;5032721;28;20048;-49
2021/07/24 05:47:57;;;;;;;12.70;6.82;;;;;;;17.44;85.23;101235.28;5031555;28;20072;-52
2021/07/24 05:50:25;;;;;;;10.20;6.13;;;;;;;17.51;85.00;101224.31;5031884;28;20056;-50
2021/07/24 05:52:54;;;;;;;11.13;7.18;;;;;;;17.53;85.02;101217.16;5028733;28;20045;-58
2021/07/24 05:55:22;;;;;;;13.75;7.82;;;;;;;17.54;84.87;101224.47;5028532;28;20463;-51
2021/07/24 05:57:50;;;;;;;14.95;8.60;;;;;;;17.54;84.60;101218.00;5031867;28;20460;-52
2021/07/24 06:00:18;;;;;;;12.73;8.23;;;;;;;17.58;84.46;101216.16;5031018;28;20503;-52
2021/07/24 06:02:46;;;;;;;14.00;8.50;;;;;;;17.61;83.90;101215.44;5030109;28;20162;-51
2021/07/24 06:05:14;;;;;;;11.98;7.60;;;;;;;17.58;83.53;101197.19;5028599;28;20106;-52
2021/07/24 06:07:42;;;;;;;11.85;7.25;;;;;;;17.62;83.77;101191.72;5030479;28;20407;-45
2021/07/24 06:10:11;;;;;;;11.95;7.43;;;;;;;17.68;83.66;101187.56;5029597;28;20502;-49
2021/07/24 06:12:39;;;;;;;8.20;6.30;;;;;;;17.71;83.57;101177.59;5024123;28;20502;-48
2021/07/24 06:15:08;;;;;;;13.95;7.78;;;;;;;17.75;83.43;101179.41;5027922;28;20077;-48
2021/07/24 06:17:42;;;;;;;12.75;7.50;;;;;;;17.79;82.98;101177.53;5029085;28;20506;-49
2021/07/24 06:20:10;;;;;;;11.63;7.57;;;;;;;17.88;82.42;101175.50;5029144;28;20482;-52
2021/07/24 06:22:38;;;;;;;10.65;7.50;;;;;;;18.00;82.43;101177.59;5028359;28;20057;-50
2021/07/24 06:25:07;;;;;;;12.27;7.60;;;;;;;18.06;81.64;101178.22;5024939;28;20069;-48
2021/07/24 06:27:37;;;;;;;12.52;8.02;;;;;;;18.12;80.90;101180.50;5030022;28;20147;-51
2021/07/24 06:30:06;;;;;;;12.60;7.68;;;;;;;18.17;80.64;101185.97;5029000;28;20075;-49
2021/07/24 06:32:34;;;;;;;12.25;8.05;;;;;;;18.20;80.36;101185.25;5028962;28;20050;-48
2021/07/24 06:35:01;;;;;;;11.20;7.32;;;;;;;18.30;80.07;101188.88;5029051;28;20050;-55
2021/07/24 06:37:30;;;;;;;9.85;7.03;;;;;;;18.42;79.77;101191.75;5030010;28;20060;-50
2021/07/24 06:39:58;;;;;;;11.32;8.15;;;;;;;18.51;79.64;101199.00;5028606;28;20076;-49
2021/07/24 06:42:25;;;;;;;10.02;7.25;;;;;;;18.65;79.00;101195.09;5029668;28;20541;-61
2021/07/24 06:44:55;;;;;;;12.10;7.97;;;;;;;18.74;77.70;101196.69;5029366;28;20071;-50
2021/07/24 06:47:22;;;;;;;10.50;7.38;;;;;;;18.87;77.12;101181.44;5028713;28;20414;-56
2021/07/24 06:49:50;;;;;;;9.77;6.88;;;;;;;19.06;76.69;101180.91;5029712;28;20457;-56
2021/07/24 06:52:18;;;;;;;11.10;7.40;;;;;;;19.24;75.67;101178.69;5029126;28;20041;-48
2021/07/24 06:54:47;;;;;;;10.93;7.22;;;;;;;19.38;75.37;101178.41;5028252;28;20045;-48
2021/07/24 06:57:14;;;;;;;10.38;7.20;;;;;;;19.49;74.45;101183.25;5028132;28;20114;-52
2021/07/24 06:59:43;;;;;;;9.25;6.65;;;;;;;19.62;74.39;101181.28;5029443;28;20513;-52
2021/07/24 07:02:13;;;;;;;9.20;6.82;;;;;;;19.84;74.35;101185.66;5027985;28;20140;-49
2021/07/24 07:04:41;;;;;;;10.90;7.25;;;;;;;20.00;73.25;101189.41;5029269;28;20135;-55
2021/07/24 07:07:10;;;;;;;10.52;6.72;;;;;;;20.12;72.86;101185.75;5029028;28;20502;-49
2021/07/24 07:09:38;;;;;;;11.00;8.07;;;;;;;20.21;71.92;101184.44;5024816;28;20049;-52
2021/07/24 07:12:06;;;;;;;13.45;8.68;;;;;;;20.23;71.51;101182.06;5028879;28;20050;-56
2021/07/24 07:14:34;;;;;;;12.13;8.00;;;;;;;20.20;71.15;101179.13;5028624;28;20069;-53
2021/07/24 07:17:03;;;;;;;12.52;8.15;;;;;;;20.22;71.47;101174.75;5028900;28;20103;-51
2021/07/24 07:19:35;;;;;;;11.68;7.30;;;;;;;20.32;71.46;101172.63;5029120;28;20065;-57
2021/07/24 07:22:03;;;;;;;10.40;7.07;;;;;;;20.43;71.54;101180.28;5028129;28;20042;-50
2021/07/24 07:24:33;;;;;;;11.23;8.30;;;;;;;20.48;71.12;101177.22;5029223;28;20041;-49
2021/07/24 07:27:02;;;;;;;11.38;7.63;;;;;;;20.55;70.64;101188.78;5028855;28;20406;-48
2021/07/24 07:29:30;;;;;;;14.38;9.07;;;;;;;20.59;70.45;101194.53;5028203;28;20041;-47
2021/07/24 07:31:58;;;;;;;10.75;7.65;;;;;;;20.74;70.61;101190.97;5028798;28;20056;-54
2021/07/24 07:34:26;;;;;;;12.60;8.75;;;;;;;20.79;69.66;101187.84;5028931;28;20053;-48
2021/07/24 07:36:56;;;;;;;13.25;8.88;;;;;;;20.89;69.13;101187.34;5028231;28;20046;-48
2021/07/24 07:39:24;;;;;;;11.57;7.90;;;;;;;20.94;69.13;101181.41;5028901;28;20073;-58
2021/07/24 07:41:52;;;;;;;11.35;8.10;;;;;;;21.01;68.72;101177.13;5028795;28;20112;-53
2021/07/24 07:44:23;;;;;;;12.38;8.40;;;;;;;21.04;68.31;101185.72;5028128;28;20121;-48
2021/07/24 07:46:51;;;;;;;11.35;8.65;;;;;;;21.12;68.36;101192.44;5029093;28;20072;-48
2021/07/24 07:49:19;;;;;;;12.55;9.45;;;;;;;21.12;67.89;101189.59;5028747;28;20136;-56
2021/07/24 07:51:47;;;;;;;12.80;9.65;;;;;;;21.10;67.67;101184.28;5027912;28;20064;-48
2021/07/24 07:54:16;;;;;;;11.68;8.48;;;;;;;21.07;67.78;101176.50;5028722;28;20037;-48
2021/07/24 07:56:43;;;;;;;13.80;9.13;;;;;;;21.06;68.09;101174.03;5028285;28;20053;-49
2021/07/24 07:59:11;;;;;;;12.70;8.52;;;;;;;21.12;68.30;101181.09;5028371;28;20045;-51
2021/07/24 08:01:39;;;;;;;12.75;9.27;;;;;;;21.10;68.06;101170.09;5029045;28;20041;-53
2021/07/24 08:04:07;;;;;;;14.00;9.95;;;;;;;21.01;68.41;101174.28;5025582;28;20121;-56
2021/07/24 08:06:35;;;;;;;10.77;8.45;;;;;;;20.97;68.62;101179.88;5022044;28;20057;-53
2021/07/24 08:09:06;;;;;;;12.87;8.30;;;;;;;21.02;69.08;101173.09;5025065;28;20091;-54
2021/07/24 08:11:35;;;;;;;10.85;8.68;;;;;;;21.04;68.94;101179.22;5027009;28;20052;-54
2021/07/24 08:14:03;;;;;;;13.32;9.10;;;;;;;21.06;67.98;101174.03;5028427;28;20117;-60
2021/07/24 08:16:31;;;;;;;11.70;8.43;;;;;;;20.97;68.50;101165.69;5028662;28;20521;-49
2021/07/24 08:18:58;;;;;;;10.88;8.30;;;;;;;21.01;68.59;101155.25;5027681;28;20046;-49
2021/07/24 08:21:26;;;;;;;13.57;9.63;;;;;;;21.14;68.44;101158.84;5028009;28;20049;-48
2021/07/24 08:23:54;;;;;;;11.52;8.45;;;;;;;21.27;68.49;101146.25;5028664;28;20087;-50
2021/07/24 08:26:22;;;;;;;14.15;9.43;;;;;;;21.45;68.06;101143.88;5031692;28;20494;-54
2021/07/24 08:28:51;;;;;;;12.15;8.43;;;;;;;21.49;67.62;101137.09;5031618;28;20106;-52
2021/07/24 08:31:19;;;;;;;12.38;8.82;;;;;;;21.63;67.52;101134.63;5031926;28;20053;-54
2021/07/24 08:33:46;;;;;;;14.65;9.70;;;;;;;21.72;66.96;101137.28;5031270;28;20124;-48
2021/07/24 08:36:14;;;;;;;13.50;9.40;;;;;;;21.73;66.65;101126.75;5031727;28;20478;-51
2021/07/24 08:38:42;;;;;;;12.77;9.38;;;;;;;21.76;66.67;101123.16;5031711;28;20454;-49
2021/07/24 08:41:14;;;;;;;13.35;9.75;;;;;;;21.82;66.49;101124.50;5031855;28;20057;-49
2021/07/24 08:43:44;;;;;;;15.25;10.35;;;;;;;21.88;65.95;101125.88;5028948;28;20840;-54
2021/07/24 08:46:13;;;;;;;13.10;9.52;;;;;;;21.88;66.27;101140.91;5031105;28;20538;-47
2021/07/24 08:48:42;;;;;;;13.02;9.82;;;;;;;21.94;65.95;101128.09;5031021;28;20047;-47
2021/07/24 08:51:14;;;;;;;13.18;9.70;;;;;;;22.06;65.61;101132.03;5031336;28;20123;-57
2021/07/24 08:53:43;;;;;;;14.82;10.32;;;;;;;22.15;65.81;101122.09;5031029;28;20052;-47
2021/07/24 08:56:16;;;;;;;14.88;10.63;;;;;;;22.25;65.01;101117.84;5031414;28;20069;-50
2021/07/24 08:58:46;;;;;;;14.38;10.25;;;;;;;22.30;64.52;101126.91;5031213;28;20052;-53
2021/07/24 09:01:20;;;;;;;13.73;9.82;;;;;;;22.32;63.82;101121.69;5030968;28;20454;-48
2021/07/24 09:03:49;;;;;;;12.55;9.52;;;;;;;22.38;64.19;101125.06;5030440;28;20111;-48
2021/07/24 09:06:21;;;;;;;14.55;10.32;;;;;;;22.34;63.78;101127.81;5030900;28;20050;-50
2021/07/24 09:08:51;;;;;;;12.88;9.60;;;;;;;22.33;63.80;101137.53;5029530;28;20565;-56
2021/07/24 09:11:20;;;;;;;14.80;9.98;;;;;;;22.37;64.08;101126.25;5031275;28;20211;-48
2021/07/24 09:13:48;;;;;;;13.65;10.00;;;;;;;22.44;64.10;101125.56;5031104;28;20520;-47
2021/07/24 09:16:17;;;;;;;13.43;8.50;;;;;;;22.59;64.02;101121.81;5030695;28;20049;-54
2021/07/24 09:18:49;;;;;;;13.23;9.57;;;;;;;22.76;63.48;101127.06;5030765;28;20049;-48
2021/07/24 09:21:18;;;;;;;12.88;9.40;;;;;;;22.82;63.24;101125.56;5029937;28;20057;-51
2021/07/24 09:23:47;;;;;;;13.48;9.68;;;;;;;22.87;62.62;101127.31;5030921;28;20192;-49
2021/07/24 09:26:33;;;;;;;12.50;9.77;;;;;;;22.92;62.29;101124.97;5028665;28;20053;-60
2021/07/24 09:29:12;;;;;;;14.10;8.68;;;;;;;23.06;62.85;101129.28;5029444;28;20041;-49
2021/07/24 09:31:40;;;;;;;12.48;9.15;;;;;;;23.16;62.37;101120.97;5027390;28;20099;-48
2021/07/24 09:34:10;;;;;;;12.18;8.68;;;;;;;23.26;61.95;101110.97;5028494;28;20664;-56
2021/07/24 09:36:39;;;;;;;11.93;9.40;;;;;;;23.33;61.63;101109.06;5025706;28;20049;-50
2021/07/24 09:39:08;;;;;;;13.75;9.85;;;;;;;23.37;61.43;101106.28;5027283;28;20124;-48
2021/07/24 09:41:36;;;;;;;11.05;8.45;;;;;;;23.38;61.43;101100.19;5026672;28;20095;-48
2021/07/24 09:44:05;;;;;;;15.07;9.48;;;;;;;23.52;61.34;101105.34;5029798;28;20041;-55
2021/07/24 09:46:32;;;;;;;11.80;8.55;;;;;;;23.52;60.82;101093.13;5030660;28;20052;-52
2021/07/24 09:49:14;;;;;;;11.25;8.63;;;;;;;23.63;59.96;101097.78;5030067;28;20049;-50
2021/07/24 09:51:45;;;;;;;13.15;9.60;;;;;;;23.73;59.77;101102.03;5026009;28;20461;-53
2021/07/24 09:54:25;;;;;;;13.98;9.35;;;;;;;23.75;59.71;101091.06;5028947;28;20053;-52
2021/07/24 09:56:54;;;;;;;13.10;9.38;;;;;;;23.74;59.67;101089.44;5028482;28;20167;-49
2021/07/24 09:59:24;;;;;;;13.30;9.20;;;;;;;23.56;59.61;101089.16;5030323;28;20430;-54
2021/07/24 10:01:54;;;;;;;10.50;7.75;;;;;;;23.49;60.41;101088.16;5030479;28;20103;-51
2021/07/24 10:04:29;;;;;;;12.05;8.60;;;;;;;23.54;59.74;101087.88;5029802;28;20406;-56
2021/07/24 10:06:59;;;;;;;12.85;9.35;;;;;;;23.40;59.68;101090.44;5030016;28;20053;-58
2021/07/24 10:09:29;;;;;;;11.23;8.93;;;;;;;23.26;60.25;101083.31;5030407;28;20049;-48
2021/07/24 10:11:58;;;;;;;11.70;9.48;;;;;;;23.25;60.42;101078.00;5029143;28;20485;-49
2021/07/24 10:14:27;;;;;;;13.23;8.88;;;;;;;23.29;60.69;101082.56;5029010;28;20105;-55
2021/07/24 10:16:56;;;;;;;12.05;8.57;;;;;;;23.42;60.33;101082.34;5029782;28;20048;-49
2021/07/24 10:19:25;;;;;;;12.60;8.95;;;;;;;23.35;60.37;101075.34;5029591;28;20045;-48
2021/07/24 10:21:55;;;;;;;13.43;9.23;;;;;;;23.38;60.78;101073.75;5028110;28;20403;-47
2021/07/24 10:24:24;;;;;;;12.32;9.25;;;;;;;23.53;60.49;101075.66;5029344;28;20033;-48
2021/07/24 10:26:55;;;;;;;14.05;10.30;;;;;;;23.55;60.30;101073.25;5029960;28;20455;-48
2021/07/24 10:29:29;;;;;;;13.38;9.15;;;;;;;23.51;60.03;101077.22;5029820;28;20045;-49
2021/07/24 10:32:03;;;;;;;14.68;8.80;;;;;;;23.29;60.44;101071.16;5029112;28;20053;-50
2021/07/24 10:34:34;;;;;;;12.02;8.35;;;;;;;23.15;60.70;101070.09;5028611;28;20049;-49
2021/07/24 10:37:33;;;;;;;9.55;7.75;;;;;;;23.06;60.83;101072.34;5029306;28;20053;-53
2021/07/24 10:40:35;;;;;;;12.15;8.38;;;;;;;23.09;61.03;101068.75;5029019;28;20465;-48
2021/07/24 10:43:06;;;;;;;10.77;7.65;;;;;;;23.06;61.71;101073.19;5028767;28;20487;-49
2021/07/24 10:45:52;;;;;;;10.25;7.95;;;;;;;23.08;61.50;101065.09;5029662;28;20132;-49
2021/07/24 10:48:22;;;;;;;11.07;8.48;;;;;;;23.09;61.60;101066.72;5029573;28;20041;-50
2021/07/24 10:51:13;;;;;;;11.75;8.30;;;;;;;23.06;61.08;101056.09;5029529;28;20052;-51
2021/07/24 10:54:12;;;;;;;12.13;8.80;;;;;;;23.07;61.05;101071.16;5025574;28;20088;-48
2021/07/24 10:56:42;;;;;;;13.70;8.30;;;;;;;23.08;61.58;101067.13;4968102;28;20105;-57
2021/07/24 10:59:23;;;;;;;11.52;8.90;;;;;;;23.20;61.57;101070.59;5013223;28;20067;-57
2021/07/24 11:01:55;;;;;;;12.98;8.88;;;;;;;23.33;61.53;101069.19;5027797;28;20473;-61
2021/07/24 11:04:41;;;;;;;12.40;7.97;;;;;;;23.44;61.66;101060.00;5029123;28;20045;-51
2021/07/24 11:07:41;;;;;;;12.57;9.38;;;;;;;23.45;60.87;101062.47;5026048;28;20056;-50
2021/07/24 11:10:10;;;;;;;10.52;7.32;;;;;;;23.53;61.80;101046.34;5028620;28;20042;-50
2021/07/24 11:12:40;;;;;;;11.93;8.70;;;;;;;23.65;60.87;101038.41;5025493;28;20072;-51
2021/07/24 11:15:09;;;;;;;10.07;7.90;;;;;;;23.78;60.94;101046.75;5026668;28;20057;-49
2021/07/24 11:17:38;;;;;;;12.02;8.60;;;;;;;23.99;60.91;101047.03;5025391;28;20572;-49
2021/07/24 11:20:46;;;;;;;11.02;7.82;;;;;;;24.26;60.57;101040.09;5025402;28;20045;-53
2021/07/24 11:23:14;;;;;;;9.88;7.20;;;;;;;24.46;59.71;101048.47;5025796;28;20053;-51
2021/07/24 11:25:46;;;;;;;12.00;8.43;;;;;;;24.55;59.37;101049.00;5025928;28;20077;-48
2021/07/24 11:28:19;;;;;;;9.40;7.78;;;;;;;24.63;58.90;101034.41;5025480;28;20047;-52
2021/07/24 11:30:56;;;;;;;11.35;8.40;;;;;;;24.71;58.35;101024.72;5028968;28;20045;-52
2021/07/24 11:33:29;;;;;;;13.38;8.30;;;;;;;24.80;58.40;101024.41;5049962;28;20062;-53